Canaan, IN (47224)

10:01 PM EST on December 05, 2016 (GMT -0500)
APRSWXNET | | Change Station

Elev 954 ft 39.07 °N, 85.25 °W | Updated 23 minutes ago

Overcast
Overcast
37 °F
Feels Like 34 °F
N
4
Wind Variable Wind from NE
Gusts 8.0 mph

Today
High -- | Low -- °F
--% Chance of Precip.
Yesterday
High -- | Low -- °F
Precip. -- in
Pressure 29.96 in
Visibility 10.0 miles
Clouds Overcast 16000 ft
Windchill 34 °F
Dew Point 33 °F
Humidity 85%
Rainfall in
Snow Depth Not available.
7:44 AM 5:18 PM
Waxing Crescent, 37% visible
METAR KCVG 060252Z 08009KT 10SM OVC160 04/01 A2995 RMK AO2 SLP145 BINOVC T00390006 56017
Pressure 29.96 in
Visibility 10.0 miles
Clouds Overcast 16000 ft
Windchill 34 °F
Dew Point 33 °F
Humidity 85%
Rainfall in
Snow Depth Not available.
7:44 AM 5:18 PM
Waxing Crescent, 37% visible
METAR KCVG 060252Z 08009KT 10SM OVC160 04/01 A2995 RMK AO2 SLP145 BINOVC T00390006 56017

10-Day Weather Forecast

Almanac

Astronomy

Dec. 05, 2016 Rise Set
Actual Time
Civil Twilight
Nautical Twilight
Astronomical Twilight
Moon
Length of Visible Light
Length of Day
Tomorrow will be .
, % of the Moon is Illuminated

Today's Extremes

State Highs State Lows

Community

WunderPhotos

Upload Photos

1,955,914 photos uploaded!

WunderBlog® & News

Nearby

Air Quality

  Air Quality AQ Index Pollutant
Not available.

Snow Depth

Station Depth Elevation

Earthquake Activity

City Distance Mag. Time & Date
Minimum magnitude displayed is 2.5.

Coastal Water Temperatures

Place Temperature

Stations

Nearby Weather Stations

Station Location Temp. Windchill Dew Point Humidity Wind Precip. Elev Updated Type
                   

Watches & Warnings

There are currently no watches in effect.